Terminal Aerodrome Forecast
Issued by NWS

Current Version | Previous Version | Text Only | Print | Product List | Glossary On
Versions: 1 2 3 4 5 6 7 8 9 10 11 12 13 14 15 16 17 18 19 20
000
FTUS44 KBMX 292320
TAFTCL
TAF
KTCL 292320Z 3000/3024 22007KT P6SM SCT250
     FM301000 22007KT P6SM VCSH SCT050
     FM301300 25010KT P6SM VCTS BKN050CB=

USA.gov is the U.S. government's official web portal to all federal, state and local government web resources and services.